createdAt,value
2023-05-21T00:00:51.443Z,11.30
2023-05-21T00:03:18.451Z,11.19
2023-05-21T00:05:46.917Z,11.17
2023-05-21T00:08:14.538Z,11.13
2023-05-21T00:10:41.412Z,11.12
2023-05-21T00:13:09.039Z,11.14
2023-05-21T00:15:36.801Z,11.14
2023-05-21T00:18:03.965Z,11.16
2023-05-21T00:20:32.245Z,11.21
2023-05-21T00:22:59.784Z,11.10
2023-05-21T00:25:26.472Z,11.06
2023-05-21T00:27:54.330Z,11.06
2023-05-21T00:30:20.975Z,11.06
2023-05-21T00:32:47.605Z,11.10
2023-05-21T00:35:14.458Z,11.10
2023-05-21T00:37:41.035Z,11.12
2023-05-21T00:40:09.109Z,11.12
2023-05-21T00:42:40.239Z,11.10
2023-05-21T00:45:07.557Z,11.11
2023-05-21T00:47:35.392Z,11.11
2023-05-21T00:50:03.520Z,11.08
2023-05-21T00:52:30.855Z,11.08
2023-05-21T00:54:57.300Z,11.07
2023-05-21T00:57:26.990Z,11.01
2023-05-21T00:59:53.849Z,10.96
2023-05-21T01:02:20.611Z,10.89
2023-05-21T01:04:47.269Z,10.96
2023-05-21T01:07:14.528Z,10.93
2023-05-21T01:09:42.515Z,10.88
2023-05-21T01:12:10.933Z,10.86
2023-05-21T01:14:38.661Z,10.79
2023-05-21T01:17:06.420Z,10.75
2023-05-21T01:19:35.713Z,10.76
2023-05-21T01:22:07.371Z,10.75
2023-05-21T01:24:35.066Z,10.77
2023-05-21T01:27:06.608Z,10.78
2023-05-21T01:29:33.620Z,10.78
2023-05-21T01:32:31.400Z,10.78
2023-05-21T01:35:05.850Z,10.82
2023-05-21T01:37:36.790Z,10.83
2023-05-21T01:40:31.156Z,10.71
2023-05-21T01:42:58.677Z,10.67
2023-05-21T01:45:27.869Z,10.62
2023-05-21T01:47:56.016Z,10.53
2023-05-21T01:50:24.738Z,10.54
2023-05-21T01:53:01.382Z,10.53
2023-05-21T01:55:31.214Z,10.49
2023-05-21T01:58:02.034Z,10.48
2023-05-21T02:00:29.720Z,10.51
2023-05-21T02:02:56.815Z,10.50
2023-05-21T02:05:23.787Z,10.55
2023-05-21T02:07:51.920Z,10.59
2023-05-21T02:10:19.444Z,10.64
2023-05-21T02:12:46.149Z,10.64
2023-05-21T02:15:14.548Z,10.66
2023-05-21T02:17:42.352Z,10.72
2023-05-21T02:20:11.902Z,10.73
2023-05-21T02:22:43.643Z,10.73
2023-05-21T02:25:11.527Z,10.73
2023-05-21T02:27:39.057Z,10.72
2023-05-21T02:30:08.518Z,10.74
2023-05-21T02:32:35.793Z,10.77
2023-05-21T02:35:03.801Z,10.74
2023-05-21T02:37:34.552Z,10.74
2023-05-21T02:40:03.551Z,10.73
2023-05-21T02:42:30.870Z,10.69
2023-05-21T02:44:57.425Z,10.69
2023-05-21T02:47:25.932Z,10.69
2023-05-21T02:49:54.131Z,10.75
2023-05-21T02:52:23.991Z,10.75
2023-05-21T02:54:50.687Z,10.74
2023-05-21T02:57:18.309Z,10.76
2023-05-21T02:59:45.864Z,10.77
2023-05-21T03:02:12.444Z,10.78
2023-05-21T03:04:39.238Z,10.78
2023-05-21T03:07:06.257Z,10.75
2023-05-21T03:09:32.708Z,10.69
2023-05-21T03:11:59.431Z,10.64
2023-05-21T03:14:25.873Z,10.63
2023-05-21T03:16:53.235Z,10.64
2023-05-21T03:19:21.571Z,10.62
2023-05-21T03:21:49.938Z,10.64
2023-05-21T03:24:16.460Z,10.56
2023-05-21T03:26:42.900Z,10.59
2023-05-21T03:29:10.475Z,10.58
2023-05-21T03:31:36.978Z,10.57
2023-05-21T03:34:03.629Z,10.62
2023-05-21T03:36:30.074Z,10.59
2023-05-21T03:38:56.603Z,10.55
2023-05-21T03:41:23.396Z,10.53
2023-05-21T03:43:49.895Z,10.56
2023-05-21T03:46:16.530Z,10.54
2023-05-21T03:48:43.250Z,10.56
2023-05-21T03:51:10.094Z,10.60
2023-05-21T03:53:37.023Z,10.61
2023-05-21T03:56:03.721Z,10.65
2023-05-21T03:58:30.765Z,10.67
2023-05-21T04:00:57.762Z,10.69
2023-05-21T04:03:24.710Z,10.71
2023-05-21T04:05:51.442Z,10.68
2023-05-21T04:08:19.377Z,10.71
2023-05-21T04:10:45.801Z,10.69
2023-05-21T04:13:12.718Z,10.69
2023-05-21T04:15:39.819Z,10.64
2023-05-21T04:18:07.554Z,10.63
2023-05-21T04:20:35.148Z,10.67
2023-05-21T04:23:02.931Z,10.71
2023-05-21T04:25:29.345Z,10.75
2023-05-21T04:27:56.156Z,10.82
2023-05-21T04:30:23.944Z,10.87
2023-05-21T04:32:53.062Z,10.91
2023-05-21T04:35:22.004Z,10.94
2023-05-21T04:37:48.873Z,10.94
2023-05-21T04:40:24.595Z,10.93
2023-05-21T04:42:52.248Z,10.96
2023-05-21T04:45:18.800Z,11.02
2023-05-21T04:47:46.331Z,11.04
2023-05-21T04:50:13.155Z,11.03
2023-05-21T04:52:40.285Z,11.05
2023-05-21T04:55:09.945Z,11.10
2023-05-21T04:57:36.924Z,11.16
2023-05-21T05:00:06.772Z,11.26
2023-05-21T05:02:33.227Z,11.32
2023-05-21T05:04:59.936Z,11.39
2023-05-21T05:07:26.666Z,11.44
2023-05-21T05:09:53.136Z,11.50
2023-05-21T05:12:19.731Z,11.55
2023-05-21T05:14:46.555Z,11.63
2023-05-21T05:17:15.693Z,11.72
2023-05-21T05:19:42.944Z,11.80
2023-05-21T05:22:10.013Z,11.84
2023-05-21T05:24:37.831Z,11.87
2023-05-21T05:27:04.454Z,11.99
2023-05-21T05:29:30.896Z,12.10
2023-05-21T05:31:57.706Z,12.17
2023-05-21T05:34:24.471Z,12.25
2023-05-21T05:36:51.029Z,12.28
2023-05-21T05:39:17.948Z,12.34
2023-05-21T05:41:44.399Z,12.37
2023-05-21T05:44:10.977Z,12.46
2023-05-21T05:46:37.909Z,12.54
2023-05-21T05:49:04.963Z,12.54
2023-05-21T05:51:31.657Z,12.57
2023-05-21T05:53:58.200Z,12.61
2023-05-21T05:56:24.944Z,12.69
2023-05-21T05:58:51.367Z,12.70
2023-05-21T06:01:19.206Z,12.84
2023-05-21T06:03:45.975Z,13.10
2023-05-21T06:06:13.077Z,13.17
2023-05-21T06:08:40.499Z,13.38
2023-05-21T06:11:07.090Z,13.29
2023-05-21T06:13:33.714Z,13.40
2023-05-21T06:16:00.486Z,13.53
2023-05-21T06:18:27.016Z,13.59
2023-05-21T06:20:53.815Z,13.75
2023-05-21T06:23:20.381Z,13.88
2023-05-21T06:25:46.976Z,13.89
2023-05-21T06:28:13.851Z,13.92
2023-05-21T06:30:40.663Z,13.60
2023-05-21T06:33:07.181Z,13.66
2023-05-21T06:35:37.027Z,13.57
2023-05-21T06:38:03.752Z,13.58
2023-05-21T06:40:30.181Z,13.69
2023-05-21T06:42:57.040Z,13.99
2023-05-21T06:45:23.495Z,14.13
2023-05-21T06:47:50.505Z,14.28
2023-05-21T06:50:17.309Z,14.23
2023-05-21T06:52:43.979Z,14.26
2023-05-21T06:55:10.624Z,14.37
2023-05-21T06:57:38.025Z,14.49
2023-05-21T07:00:05.736Z,14.73
2023-05-21T07:02:32.422Z,14.74
2023-05-21T07:04:59.084Z,14.84
2023-05-21T07:07:26.015Z,14.85
2023-05-21T07:09:52.633Z,14.98
2023-05-21T07:12:19.034Z,15.07
2023-05-21T07:14:45.714Z,14.85
2023-05-21T07:17:12.194Z,14.89
2023-05-21T07:19:38.881Z,14.93
2023-05-21T07:22:05.994Z,15.13
2023-05-21T07:24:32.434Z,15.26
2023-05-21T07:26:58.942Z,15.37
2023-05-21T07:29:25.378Z,15.48
2023-05-21T07:31:52.077Z,15.54
2023-05-21T07:34:18.580Z,15.45
2023-05-21T07:36:45.240Z,15.46
2023-05-21T07:39:11.968Z,15.58
2023-05-21T07:41:38.822Z,15.57
2023-05-21T07:44:06.062Z,15.66
2023-05-21T07:46:32.521Z,15.88
2023-05-21T07:48:59.365Z,15.98
2023-05-21T07:51:26.736Z,16.02
2023-05-21T07:53:55.122Z,15.89
2023-05-21T07:56:21.908Z,15.91
2023-05-21T07:58:48.541Z,15.99
2023-05-21T08:01:15.166Z,16.10
2023-05-21T08:03:41.734Z,16.07
2023-05-21T08:06:08.306Z,16.03
2023-05-21T08:08:35.861Z,16.04
2023-05-21T08:11:02.754Z,16.18
2023-05-21T08:13:29.173Z,16.25
2023-05-21T08:15:57.076Z,16.31
2023-05-21T08:18:23.930Z,16.33
2023-05-21T08:20:50.822Z,16.39
2023-05-21T08:23:17.247Z,16.44
2023-05-21T08:25:43.686Z,16.60
2023-05-21T08:28:10.353Z,16.83
2023-05-21T08:30:37.221Z,16.99
2023-05-21T08:33:03.847Z,17.13
2023-05-21T08:35:30.386Z,17.38
2023-05-21T08:37:57.200Z,17.16
2023-05-21T08:40:23.663Z,17.42
2023-05-21T08:42:51.758Z,17.61
2023-05-21T08:45:22.144Z,17.48
2023-05-21T08:47:56.592Z,17.67
2023-05-21T08:50:26.844Z,17.72
2023-05-21T08:52:55.223Z,17.58
2023-05-21T08:55:25.193Z,17.98
2023-05-21T08:57:54.560Z,18.09
2023-05-21T09:00:21.277Z,18.12
2023-05-21T09:02:48.151Z,18.31
2023-05-21T09:05:16.469Z,18.55
2023-05-21T09:07:47.927Z,18.87
2023-05-21T09:10:18.663Z,18.63
2023-05-21T09:12:45.700Z,18.63
2023-05-21T09:15:12.198Z,18.81
2023-05-21T09:17:38.839Z,19.01
2023-05-21T09:20:14.514Z,19.21
2023-05-21T09:22:46.458Z,19.40
2023-05-21T09:25:18.177Z,19.36
2023-05-21T09:27:44.758Z,19.29
2023-05-21T09:30:17.629Z,19.25
2023-05-21T09:32:45.599Z,19.49
2023-05-21T09:35:14.637Z,19.55
2023-05-21T09:37:47.199Z,19.57
2023-05-21T09:40:15.401Z,19.61
2023-05-21T09:42:45.548Z,19.88
2023-05-21T09:45:12.409Z,19.98
2023-05-21T09:47:44.014Z,20.14
2023-05-21T09:50:12.178Z,20.14
2023-05-21T09:52:41.907Z,20.16
2023-05-21T09:55:12.805Z,20.21
2023-05-21T09:57:43.790Z,20.46
2023-05-21T10:00:25.139Z,20.57
2023-05-21T10:02:56.847Z,20.47
2023-05-21T10:05:30.436Z,20.56
2023-05-21T10:08:02.409Z,20.44
2023-05-21T10:10:30.738Z,20.82
2023-05-21T10:13:06.982Z,20.84
2023-05-21T10:15:39.164Z,21.02
2023-05-21T10:18:06.812Z,21.14
2023-05-21T10:20:33.552Z,21.52
2023-05-21T10:23:01.711Z,21.24
2023-05-21T10:25:28.874Z,21.30
2023-05-21T10:27:56.126Z,21.34
2023-05-21T10:30:23.908Z,21.55
2023-05-21T10:32:50.897Z,21.70
2023-05-21T10:35:18.431Z,21.70
2023-05-21T10:37:45.913Z,21.73
2023-05-21T10:40:13.895Z,21.86
2023-05-21T10:42:51.050Z,22.12
2023-05-21T10:45:32.486Z,22.18
2023-05-21T10:48:40.027Z,21.99
2023-05-21T10:51:21.480Z,21.96
2023-05-21T10:53:54.396Z,22.25
2023-05-21T10:56:28.676Z,22.63
2023-05-21T10:59:33.272Z,22.82
2023-05-21T11:02:00.197Z,22.72
2023-05-21T11:04:27.854Z,22.93
2023-05-21T11:06:56.126Z,22.99
2023-05-21T11:09:23.458Z,23.16
2023-05-21T11:11:51.632Z,23.32
2023-05-21T11:14:39.919Z,23.21
2023-05-21T11:17:06.680Z,23.21
2023-05-21T11:19:38.269Z,23.36
2023-05-21T11:22:26.303Z,23.53
2023-05-21T11:24:54.673Z,23.54
2023-05-21T11:27:37.397Z,23.88
2023-05-21T11:30:08.694Z,23.91
2023-05-21T11:32:39.889Z,24.08
2023-05-21T11:35:06.894Z,23.92
2023-05-21T11:37:35.177Z,24.11
2023-05-21T11:40:30.051Z,24.03
2023-05-21T11:42:57.760Z,23.76
2023-05-21T11:45:29.191Z,23.78
2023-05-21T11:47:56.423Z,24.16
2023-05-21T11:50:23.062Z,24.17
2023-05-21T11:52:50.865Z,24.40
2023-05-21T11:55:22.538Z,24.23
2023-05-21T11:57:53.337Z,24.44
2023-05-21T12:00:19.788Z,24.73
2023-05-21T12:02:53.462Z,24.53
2023-05-21T12:05:20.920Z,24.75
2023-05-21T12:07:51.337Z,24.64
2023-05-21T12:10:21.858Z,24.63
2023-05-21T12:12:55.729Z,24.20
2023-05-21T12:15:25.228Z,24.52
2023-05-21T12:17:53.077Z,24.61
2023-05-21T12:20:20.742Z,24.83
2023-05-21T12:22:49.448Z,25.14
2023-05-21T12:25:21.586Z,25.05
2023-05-21T12:27:57.830Z,24.88
2023-05-21T12:30:25.986Z,25.29
2023-05-21T12:32:52.603Z,24.69
2023-05-21T12:35:24.297Z,25.03
2023-05-21T12:37:51.558Z,25.20
2023-05-21T12:40:18.580Z,25.01
2023-05-21T12:42:45.763Z,25.02
2023-05-21T12:45:12.821Z,24.77
2023-05-21T12:47:39.359Z,24.81
2023-05-21T12:50:13.748Z,24.88
2023-05-21T12:52:43.367Z,25.03
2023-05-21T12:55:14.497Z,25.00
2023-05-21T12:57:41.429Z,24.94
2023-05-21T13:00:08.851Z,24.60
2023-05-21T13:02:40.933Z,24.77
2023-05-21T13:05:10.002Z,24.96
2023-05-21T13:07:38.396Z,24.67
2023-05-21T13:10:07.092Z,24.88
2023-05-21T13:12:34.603Z,24.87
2023-05-21T13:15:03.011Z,24.70
2023-05-21T13:17:30.137Z,24.51
2023-05-21T13:20:13.871Z,24.49
2023-05-21T13:22:48.128Z,24.69
2023-05-21T13:25:16.664Z,24.76
2023-05-21T13:27:43.720Z,24.71
2023-05-21T13:30:13.438Z,24.74
2023-05-21T13:32:41.360Z,24.58
2023-05-21T13:35:08.669Z,24.73
2023-05-21T13:37:38.856Z,24.88
2023-05-21T13:40:07.404Z,24.94
2023-05-21T13:42:35.574Z,25.19
2023-05-21T13:45:02.320Z,25.38
2023-05-21T13:47:29.978Z,25.30
2023-05-21T13:49:56.454Z,25.23
2023-05-21T13:52:23.374Z,25.19
2023-05-21T13:54:49.905Z,25.72
2023-05-21T13:57:16.458Z,25.95
2023-05-21T13:59:43.222Z,26.03
2023-05-21T14:02:10.740Z,25.88
2023-05-21T14:04:39.302Z,25.68
2023-05-21T14:07:07.028Z,25.50
2023-05-21T14:09:34.355Z,25.60
2023-05-21T14:12:01.719Z,25.74
2023-05-21T14:14:28.398Z,25.87
2023-05-21T14:16:55.028Z,25.94
2023-05-21T14:19:21.610Z,26.00
2023-05-21T14:21:48.283Z,26.03
2023-05-21T14:24:14.938Z,26.06
2023-05-21T14:26:41.738Z,26.19
2023-05-21T14:29:08.801Z,26.35
2023-05-21T14:31:36.167Z,26.44
2023-05-21T14:34:08.069Z,26.49
2023-05-21T14:36:34.944Z,26.47
2023-05-21T14:39:01.601Z,26.24
2023-05-21T14:41:28.055Z,25.99
2023-05-21T14:43:55.367Z,25.23
2023-05-21T14:46:22.141Z,25.32
2023-05-21T14:48:48.812Z,25.20
2023-05-21T14:51:15.343Z,24.86
2023-05-21T14:53:41.885Z,24.87
2023-05-21T14:56:08.835Z,24.82
2023-05-21T14:58:35.583Z,24.83
2023-05-21T15:01:04.106Z,24.79
2023-05-21T15:03:30.756Z,24.80
2023-05-21T15:05:58.496Z,24.89
2023-05-21T15:08:25.520Z,24.79
2023-05-21T15:10:52.394Z,24.74
2023-05-21T15:13:18.846Z,24.80
2023-05-21T15:15:45.476Z,24.88
2023-05-21T15:18:12.084Z,24.85
2023-05-21T15:20:38.546Z,24.77
2023-05-21T15:23:16.126Z,24.67
2023-05-21T15:25:44.566Z,24.70
2023-05-21T15:28:12.593Z,24.73
2023-05-21T15:30:39.550Z,24.73
2023-05-21T15:33:06.799Z,24.88
2023-05-21T15:35:34.523Z,24.89
2023-05-21T15:38:01.420Z,24.97
2023-05-21T15:40:27.896Z,24.95
2023-05-21T15:42:54.771Z,24.88
2023-05-21T15:45:21.740Z,24.93
2023-05-21T15:47:48.585Z,24.93
2023-05-21T15:50:15.186Z,25.14
2023-05-21T15:52:42.998Z,25.27
2023-05-21T15:55:09.796Z,25.37
2023-05-21T15:57:36.373Z,25.36
2023-05-21T16:00:03.852Z,25.23
2023-05-21T16:02:30.771Z,25.05
2023-05-21T16:04:57.606Z,24.95
2023-05-21T16:07:24.535Z,24.92
2023-05-21T16:09:51.191Z,24.93
2023-05-21T16:12:18.218Z,24.82
2023-05-21T16:14:44.738Z,24.76
2023-05-21T16:17:11.354Z,24.66
2023-05-21T16:19:38.023Z,24.51
2023-05-21T16:22:05.061Z,24.41
2023-05-21T16:24:31.655Z,24.46
2023-05-21T16:26:58.308Z,24.30
2023-05-21T16:29:24.981Z,24.21
2023-05-21T16:31:51.492Z,24.14
2023-05-21T16:34:18.387Z,24.14
2023-05-21T16:36:44.865Z,24.21
2023-05-21T16:39:11.454Z,24.23
2023-05-21T16:41:37.935Z,24.25
2023-05-21T16:44:05.036Z,24.16
2023-05-21T16:46:31.755Z,24.05
2023-05-21T16:48:58.308Z,23.95
2023-05-21T16:51:24.939Z,23.83
2023-05-21T16:53:51.441Z,23.75
2023-05-21T16:56:17.966Z,23.61
2023-05-21T16:58:44.539Z,23.47
2023-05-21T17:01:11.117Z,23.39
2023-05-21T17:03:38.610Z,23.25
2023-05-21T17:06:07.442Z,23.17
2023-05-21T17:08:34.368Z,23.02
2023-05-21T17:11:00.860Z,22.88
2023-05-21T17:13:27.343Z,22.87
2023-05-21T17:15:53.842Z,22.80
2023-05-21T17:18:20.922Z,22.72
2023-05-21T17:20:47.408Z,22.73
2023-05-21T17:23:14.035Z,22.58
2023-05-21T17:25:40.973Z,22.62
2023-05-21T17:28:07.727Z,22.58
2023-05-21T17:30:34.234Z,22.37
2023-05-21T17:33:02.531Z,22.40
2023-05-21T17:35:30.451Z,22.34
2023-05-21T17:37:56.916Z,22.32
2023-05-21T17:40:24.495Z,22.37
2023-05-21T17:42:52.335Z,22.31
2023-05-21T17:45:19.261Z,22.33
2023-05-21T17:47:46.159Z,22.20
2023-05-21T17:50:13.005Z,22.12
2023-05-21T17:52:39.518Z,22.10
2023-05-21T17:55:07.492Z,22.01
2023-05-21T17:57:35.404Z,21.95
2023-05-21T18:00:02.347Z,21.89
2023-05-21T18:02:29.337Z,21.75
2023-05-21T18:04:55.934Z,21.70
2023-05-21T18:07:23.609Z,21.62
2023-05-21T18:09:50.218Z,21.64
2023-05-21T18:12:16.788Z,21.54
2023-05-21T18:14:43.779Z,21.48
2023-05-21T18:17:10.708Z,21.42
2023-05-21T18:19:37.587Z,21.34
2023-05-21T18:22:04.974Z,21.28
2023-05-21T18:24:31.892Z,21.23
2023-05-21T18:26:58.792Z,21.15
2023-05-21T18:29:25.798Z,21.06
2023-05-21T18:31:52.392Z,20.87
2023-05-21T18:34:19.315Z,20.77
2023-05-21T18:36:45.945Z,20.68
2023-05-21T18:39:12.737Z,20.54
2023-05-21T18:41:39.612Z,20.40
2023-05-21T18:44:06.242Z,20.36
2023-05-21T18:46:33.107Z,20.31
2023-05-21T18:49:00.482Z,20.22
2023-05-21T18:51:27.206Z,20.15
2023-05-21T18:53:53.668Z,20.04
2023-05-21T18:56:20.134Z,19.93
2023-05-21T18:58:47.507Z,19.71
2023-05-21T19:01:14.043Z,19.60
2023-05-21T19:03:41.051Z,19.52
2023-05-21T19:06:08.288Z,19.39
2023-05-21T19:08:34.868Z,19.25
2023-05-21T19:11:01.336Z,19.17
2023-05-21T19:13:28.310Z,19.13
2023-05-21T19:15:54.922Z,18.97
2023-05-21T19:18:21.738Z,18.85
2023-05-21T19:20:48.276Z,18.74
2023-05-21T19:23:15.140Z,18.69
2023-05-21T19:25:42.127Z,18.62
2023-05-21T19:28:08.577Z,18.43
2023-05-21T19:30:36.751Z,18.36
2023-05-21T19:33:03.564Z,18.22
2023-05-21T19:35:30.888Z,18.08
2023-05-21T19:38:00.622Z,18.02
2023-05-21T19:40:29.733Z,17.98
2023-05-21T19:42:56.633Z,17.99
2023-05-21T19:45:23.087Z,17.92
2023-05-21T19:47:49.791Z,17.87
2023-05-21T19:50:16.248Z,17.77
2023-05-21T19:52:42.773Z,17.64
2023-05-21T19:55:10.263Z,17.59
2023-05-21T19:57:37.552Z,17.57
2023-05-21T20:00:05.412Z,17.54
2023-05-21T20:02:32.047Z,17.48
2023-05-21T20:04:59.192Z,17.44
2023-05-21T20:07:25.817Z,17.34
2023-05-21T20:09:52.503Z,17.27
2023-05-21T20:12:19.188Z,17.23
2023-05-21T20:14:47.403Z,17.19
2023-05-21T20:17:14.745Z,17.13
2023-05-21T20:19:41.299Z,17.10
2023-05-21T20:22:07.842Z,17.03
2023-05-21T20:24:34.897Z,16.96
2023-05-21T20:27:02.178Z,16.90
2023-05-21T20:29:29.532Z,16.88
2023-05-21T20:31:56.026Z,16.78
2023-05-21T20:34:22.720Z,16.68
2023-05-21T20:36:49.193Z,16.62
2023-05-21T20:39:15.693Z,16.58
2023-05-21T20:41:44.574Z,16.50
2023-05-21T20:44:11.813Z,16.43
2023-05-21T20:46:38.969Z,16.28
2023-05-21T20:49:05.896Z,16.20
2023-05-21T20:51:33.209Z,16.13
2023-05-21T20:53:59.834Z,16.06
2023-05-21T20:56:40.854Z,16.06
2023-05-21T20:59:10.836Z,16.00
2023-05-21T21:01:38.422Z,15.99
2023-05-21T21:04:06.226Z,16.00
2023-05-21T21:06:34.084Z,15.99
2023-05-21T21:09:00.928Z,15.98
2023-05-21T21:11:27.711Z,15.93
2023-05-21T21:13:54.694Z,15.87
2023-05-21T21:16:21.527Z,15.82
2023-05-21T21:18:48.121Z,15.80
2023-05-21T21:21:14.672Z,15.80
2023-05-21T21:23:41.398Z,15.87
2023-05-21T21:26:08.263Z,15.82
2023-05-21T21:28:34.700Z,15.80
2023-05-21T21:31:01.463Z,15.69
2023-05-21T21:33:28.362Z,15.67
2023-05-21T21:35:55.526Z,15.57
2023-05-21T21:38:23.097Z,15.50
2023-05-21T21:40:49.965Z,15.48
2023-05-21T21:43:16.773Z,15.47
2023-05-21T21:45:43.294Z,15.38
2023-05-21T21:48:09.836Z,15.23
2023-05-21T21:50:36.477Z,15.22
2023-05-21T21:53:03.896Z,15.21
2023-05-21T21:55:31.795Z,15.21
2023-05-21T21:57:58.640Z,15.17
2023-05-21T22:00:26.836Z,15.16
2023-05-21T22:02:53.843Z,15.15
2023-05-21T22:05:20.664Z,15.08
2023-05-21T22:07:47.144Z,15.01
2023-05-21T22:10:15.356Z,14.97
2023-05-21T22:12:42.779Z,15.01
2023-05-21T22:15:18.225Z,15.02
2023-05-21T22:17:44.886Z,15.01
2023-05-21T22:20:11.484Z,14.93
2023-05-21T22:22:38.061Z,14.91
2023-05-21T22:25:05.350Z,14.88
2023-05-21T22:27:32.274Z,14.80
2023-05-21T22:29:58.862Z,14.76
2023-05-21T22:32:25.855Z,14.75
2023-05-21T22:34:52.299Z,14.74
2023-05-21T22:37:19.371Z,14.71
2023-05-21T22:39:45.980Z,14.68
2023-05-21T22:42:12.669Z,14.63
2023-05-21T22:44:39.083Z,14.64
2023-05-21T22:47:06.375Z,14.63
2023-05-21T22:49:33.767Z,14.62
2023-05-21T22:52:05.253Z,14.55
2023-05-21T22:54:32.790Z,14.48
2023-05-21T22:57:01.045Z,14.48
2023-05-21T22:59:32.318Z,14.45
2023-05-21T23:01:59.581Z,14.44
2023-05-21T23:04:43.149Z,14.43
2023-05-21T23:07:10.663Z,14.40
2023-05-21T23:09:37.151Z,14.39
2023-05-21T23:12:04.489Z,14.26
2023-05-21T23:14:31.083Z,14.17
2023-05-21T23:17:02.399Z,14.13
2023-05-21T23:19:29.683Z,14.14
2023-05-21T23:21:56.816Z,14.16
2023-05-21T23:24:23.477Z,14.15
2023-05-21T23:26:50.015Z,14.19
2023-05-21T23:29:16.513Z,14.17
2023-05-21T23:31:44.369Z,14.19
2023-05-21T23:34:10.912Z,14.17
2023-05-21T23:36:37.344Z,14.14
2023-05-21T23:39:04.093Z,14.13
2023-05-21T23:41:30.710Z,14.11
2023-05-21T23:43:57.518Z,14.11
2023-05-21T23:46:24.251Z,14.08
2023-05-21T23:48:50.709Z,14.09
2023-05-21T23:51:19.138Z,14.05
2023-05-21T23:53:45.751Z,14.09
2023-05-21T23:56:12.896Z,13.96
2023-05-21T23:58:39.352Z,13.90
